KPNA

Details ICAO KPNA
Name RALPH WENZ FLD
Region United States
Timezone America/Denver (UTC-7.0)
Plans Departing 5
Arriving 5
Stats Elevation 7,086 ft / 2,160 m (AMSL)
Location 42.797390° -109.811036°
Runways 1
Magnetic Variation 10.879° E
Sunrise 2017-12-11 14:41:30 UTC / 2017-12-11 07:41:30 Local
Sunset 2017-12-11 23:46:41 UTC / 2017-12-11 16:46:41 Local
Advertisement - Login to hide

Runways

ID Width Length Bearing (true) Bearing (mag) Surface Threshold Offset Overrun Length
11 98 ft / 30 m 8,878 ft / 2,706 m 123.69° 112.81° Asphalt 0 ft / 0 m 0 ft / 0 m
29 98 ft / 30 m 8,878 ft / 2,706 m 303.71° 292.83° Asphalt 0 ft / 0 m 0 ft / 0 m

Map

Weather


0- 5 10 15 20 25 30 35+ Temperature / ° C

Clouds and Precipitation
Forecast for 2017-12-11 18:00 UTC. Updated a few seconds ago

Ground ~20,000 ft ~40,000 ft Winds

METAR

KPNA 111715Z AUTO 31013G18KT 10SM CLR 06/M11 A3050 RMK AO2

TAF

TAF KPNA 111126Z 1112/1212 31009KT P6SM SCT250 AMD LTD TO CLD VIS AND WIND

Frequencies

Recorded 118.32 MHz AWOS 3
Unicom 122.80 MHz CTAF/UNICOM
Warning: Do not use this data for real-world aviation or navigation. No guarantee of current accuracy is given.